AFA17T EICK-EICK
Flight info
| Callsign | AFA17T |
|---|---|
| Flight time | 0h 4m |
| Altitude | 2000 |
| Route | CIRCUITS |
| Aircraft | DA42/L-SDGY/S |
Departure
| Time | 2026-04-28 20:41 |
|---|---|
| Airport | Cork International Airport (EICK) |
Arrival
| Time | 2026-04-28 20:46 |
|---|---|
| Airport | Cork International Airport (EICK) |
| Time | Latitude | Longitude | Altitude | Speed | Heading |
|---|---|---|---|---|---|
| 2026-04-28 20:35 | 51.83876 | -8.48640 | 454 ft | 0 kts | 249° |
| 2026-04-28 20:39 | 51.83875 | -8.48641 | 454 ft | 0 kts | 231° |
| 2026-04-28 20:39 | 51.83862 | -8.48630 | 454 ft | 11 kts | 150° |
| 2026-04-28 20:40 | 51.83805 | -8.48727 | 461 ft | 13 kts | 253° |
| 2026-04-28 20:40 | 51.83785 | -8.48873 | 462 ft | 21 kts | 302° |
| 2026-04-28 20:40 | 51.83996 | -8.49062 | 467 ft | 29 kts | 355° |
| 2026-04-28 20:40 | 51.84021 | -8.49046 | 468 ft | 3 kts | 195° |
| 2026-04-28 20:41 | 51.83767 | -8.48893 | 462 ft | 70 kts | 160° |
| 2026-04-28 20:41 | 51.83209 | -8.48553 | 560 ft | 94 kts | 159° |
| 2026-04-28 20:41 | 51.82605 | -8.48159 | 870 ft | 93 kts | 158° |
| 2026-04-28 20:41 | 51.82075 | -8.47589 | 1147 ft | 95 kts | 121° |
| 2026-04-28 20:42 | 51.82104 | -8.46480 | 1304 ft | 109 kts | 67° |
| 2026-04-28 20:42 | 51.82430 | -8.45278 | 1409 ft | 122 kts | 64° |
| 2026-04-28 20:42 | 51.82844 | -8.44057 | 1559 ft | 122 kts | 47° |
| 2026-04-28 20:42 | 51.83619 | -8.43650 | 1535 ft | 122 kts | 345° |
| 2026-04-28 20:43 | 51.84396 | -8.44213 | 1486 ft | 123 kts | 332° |
| 2026-04-28 20:43 | 51.85171 | -8.44872 | 1362 ft | 125 kts | 330° |
| 2026-04-28 20:43 | 51.85922 | -8.45507 | 1223 ft | 115 kts | 329° |
| 2026-04-28 20:43 | 51.86593 | -8.46090 | 1111 ft | 106 kts | 335° |
| 2026-04-28 20:44 | 51.87201 | -8.46724 | 1086 ft | 101 kts | 311° |
| 2026-04-28 20:44 | 51.87369 | -8.47781 | 1071 ft | 97 kts | 265° |
| 2026-04-28 20:44 | 51.87186 | -8.48817 | 1070 ft | 96 kts | 250° |
| 2026-04-28 20:44 | 51.86860 | -8.49791 | 1022 ft | 99 kts | 238° |
| 2026-04-28 20:45 | 51.86280 | -8.50300 | 961 ft | 100 kts | 185° |
| 2026-04-28 20:45 | 51.85571 | -8.49979 | 698 ft | 105 kts | 164° |
| 2026-04-28 20:45 | 51.84904 | -8.49570 | 513 ft | 99 kts | 162° |
| 2026-04-28 20:45 | 51.84375 | -8.49252 | 478 ft | 55 kts | 159° |
| 2026-04-28 20:46 | 51.84074 | -8.49075 | 470 ft | 38 kts | 161° |
| 2026-04-28 20:46 | 51.83856 | -8.48949 | 464 ft | 30 kts | 161° |
| 2026-04-28 20:46 | 51.83788 | -8.48812 | 463 ft | 11 kts | 66° |
| 2026-04-28 20:46 | 51.83797 | -8.48771 | 462 ft | 13 kts | 67° |